sensor_id;sensor_type;location;lat;lon;timestamp;pressure;altitude;pressure_sealevel;temperature;humidity
22775;BME280;11554;51.106;3.684;2023-04-15T00:00:00;100673.38;;;8.39;100.0
22775;BME280;11554;51.106;3.684;2023-04-15T00:05:00;100676.0;;;8.36;100.0
22775;BME280;11554;51.106;3.684;2023-04-15T00:10:00;100676.64;;;8.30;98.52
22775;BME280;11554;51.106;3.684;2023-04-15T00:15:00;100673.15999999999;;;8.38;100.0
22775;BME280;11554;51.106;3.684;2023-04-15T00:20:00;100676.72;;;8.36;100.0
22775;BME280;11554;51.106;3.684;2023-04-15T00:25:00;100675.59;;;8.34;100.0
22775;BME280;11554;51.106;3.684;2023-04-15T00:30:00;100679.3;;;8.32;100.0
22775;BME280;11554;51.106;3.684;2023-04-15T00:35:00;100675.12000000001;;;8.30;100.0
22775;BME280;11554;51.106;3.684;2023-04-15T00:40:00;100678.58;;;8.33;100.0
22775;BME280;11554;51.106;3.684;2023-04-15T00:45:00;100683.38;;;8.29;100.0
22775;BME280;11554;51.106;3.684;2023-04-15T00:50:00;100683.56;;;8.31;100.0
22775;BME280;11554;51.106;3.684;2023-04-15T00:55:00;100679.51000000001;;;8.30;100.0
22775;BME280;11554;51.106;3.684;2023-04-15T01:00:00;100680.62999999999;;;8.27;100.0
22775;BME280;11554;51.106;3.684;2023-04-15T01:05:00;100682.15;;;8.27;100.0
22775;BME280;11554;51.106;3.684;2023-04-15T01:10:00;100684.83;;;8.25;100.0
22775;BME280;11554;51.106;3.684;2023-04-15T01:15:00;100679.83;;;8.24;100.0
22775;BME280;11554;51.106;3.684;2023-04-15T01:20:00;100683.72;;;8.20;100.0
22775;BME280;11554;51.106;3.684;2023-04-15T01:25:00;100685.67;;;8.19;100.0
22775;BME280;11554;51.106;3.684;2023-04-15T01:30:00;100690.36;;;8.17;100.0
22775;BME280;11554;51.106;3.684;2023-04-15T01:35:00;100687.51999999999;;;8.13;100.0
22775;BME280;11554;51.106;3.684;2023-04-15T01:40:00;100685.82;;;8.08;100.0
22775;BME280;11554;51.106;3.684;2023-04-15T01:45:00;100685.94;;;8.08;100.0
22775;BME280;11554;51.106;3.684;2023-04-15T01:50:00;100691.09;;;8.06;100.0
22775;BME280;11554;51.106;3.684;2023-04-15T01:55:00;100690.61;;;8.04;100.0
22775;BME280;11554;51.106;3.684;2023-04-15T02:00:00;100691.83;;;8.01;100.0
22775;BME280;11554;51.106;3.684;2023-04-15T02:05:00;100695.62;;;8.00;100.0
22775;BME280;11554;51.106;3.684;2023-04-15T02:10:00;100689.53;;;7.98;100.0
22775;BME280;11554;51.106;3.684;2023-04-15T02:15:00;100694.09000000001;;;7.95;100.0
22775;BME280;11554;51.106;3.684;2023-04-15T02:20:00;100698.86;;;7.94;100.0
22775;BME280;11554;51.106;3.684;2023-04-15T02:25:00;100701.86;;;7.94;100.0
22775;BME280;11554;51.106;3.684;2023-04-15T02:30:00;100701.15;;;7.94;100.0
22775;BME280;11554;51.106;3.684;2023-04-15T02:35:01;100702.28;;;7.94;100.0
22775;BME280;11554;51.106;3.684;2023-04-15T02:40:00;100707.65;;;7.93;100.0
22775;BME280;11554;51.106;3.684;2023-04-15T02:45:00;100707.75;;;7.93;100.0
22775;BME280;11554;51.106;3.684;2023-04-15T02:50:00;100711.13;;;7.93;100.0
22775;BME280;11554;51.106;3.684;2023-04-15T02:55:00;100715.85;;;7.92;100.0
22775;BME280;11554;51.106;3.684;2023-04-15T03:00:00;100716.56;;;7.92;100.0
22775;BME280;11554;51.106;3.684;2023-04-15T03:05:00;100719.26;;;7.93;100.0
22775;BME280;11554;51.106;3.684;2023-04-15T03:10:00;100717.25;;;7.94;100.0
22775;BME280;11554;51.106;3.684;2023-04-15T03:15:00;100721.25;;;7.93;100.0
22775;BME280;11554;51.106;3.684;2023-04-15T03:20:00;100726.61;;;7.92;100.0
22775;BME280;11554;51.106;3.684;2023-04-15T03:25:00;100733.7;;;7.96;100.0
22775;BME280;11554;51.106;3.684;2023-04-15T03:30:00;100738.7;;;7.95;100.0
22775;BME280;11554;51.106;3.684;2023-04-15T03:35:00;100745.04;;;7.96;100.0
22775;BME280;11554;51.106;3.684;2023-04-15T03:40:00;100748.94;;;7.98;100.0
22775;BME280;11554;51.106;3.684;2023-04-15T03:45:00;100755.96;;;8.00;100.0
22775;BME280;11554;51.106;3.684;2023-04-15T03:50:00;100758.26;;;8.02;100.0
22775;BME280;11554;51.106;3.684;2023-04-15T03:55:00;100766.21;;;7.99;100.0
22775;BME280;11554;51.106;3.684;2023-04-15T04:00:00;100774.08;;;8.00;100.0
22775;BME280;11554;51.106;3.684;2023-04-15T04:05:00;100782.79;;;8.00;100.0
22775;BME280;11554;51.106;3.684;2023-04-15T04:10:00;100795.45000000001;;;7.98;100.0
22775;BME280;11554;51.106;3.684;2023-04-15T04:15:00;100798.05;;;7.98;100.0
22775;BME280;11554;51.106;3.684;2023-04-15T04:20:00;100807.48;;;7.98;100.0
22775;BME280;11554;51.106;3.684;2023-04-15T04:25:00;100808.0;;;7.99;100.0
22775;BME280;11554;51.106;3.684;2023-04-15T04:30:00;100816.14;;;7.97;100.0
22775;BME280;11554;51.106;3.684;2023-04-15T04:35:00;100827.33;;;7.94;100.0
22775;BME280;11554;51.106;3.684;2023-04-15T04:40:00;100827.56000000001;;;7.92;100.0
22775;BME280;11554;51.106;3.684;2023-04-15T04:45:00;100837.08;;;7.91;100.0
22775;BME280;11554;51.106;3.684;2023-04-15T04:50:00;100846.34999999999;;;7.89;100.0
22775;BME280;11554;51.106;3.684;2023-04-15T04:55:00;100848.75;;;7.88;100.0
22775;BME280;11554;51.106;3.684;2023-04-15T05:00:00;100851.84000000001;;;7.88;100.0
22775;BME280;11554;51.106;3.684;2023-04-15T05:05:00;100861.01999999999;;;7.87;100.0
22775;BME280;11554;51.106;3.684;2023-04-15T05:10:00;100866.97;;;7.85;100.0
22775;BME280;11554;51.106;3.684;2023-04-15T05:15:00;100869.54;;;7.83;100.0
22775;BME280;11554;51.106;3.684;2023-04-15T05:20:00;100879.29000000001;;;7.78;100.0
22775;BME280;11554;51.106;3.684;2023-04-15T05:25:00;100887.65;;;7.79;100.0
22775;BME280;11554;51.106;3.684;2023-04-15T05:30:00;100897.34;;;7.80;100.0
22775;BME280;11554;51.106;3.684;2023-04-15T05:35:00;100905.78;;;7.77;100.0
22775;BME280;11554;51.106;3.684;2023-04-15T05:40:00;100912.3;;;7.79;100.0
22775;BME280;11554;51.106;3.684;2023-04-15T05:45:00;100923.83;;;7.79;100.0
22775;BME280;11554;51.106;3.684;2023-04-15T05:50:00;100928.49;;;7.83;100.0
22775;BME280;11554;51.106;3.684;2023-04-15T05:55:00;100939.15;;;7.88;100.0
22775;BME280;11554;51.106;3.684;2023-04-15T06:00:00;100943.62999999999;;;7.97;100.0
22775;BME280;11554;51.106;3.684;2023-04-15T06:05:00;100946.36;;;8.07;100.0
22775;BME280;11554;51.106;3.684;2023-04-15T06:10:00;100949.36;;;8.23;100.0
22775;BME280;11554;51.106;3.684;2023-04-15T06:15:00;100960.85;;;8.37;100.0
22775;BME280;11554;51.106;3.684;2023-04-15T06:20:00;100974.2;;;8.55;100.0
22775;BME280;11554;51.106;3.684;2023-04-15T06:25:00;100979.17;;;8.71;100.0
22775;BME280;11554;51.106;3.684;2023-04-15T06:30:00;100994.28;;;8.89;100.0
22775;BME280;11554;51.106;3.684;2023-04-15T06:35:00;100999.95;;;9.10;100.0
22775;BME280;11554;51.106;3.684;2023-04-15T06:40:00;101009.75;;;9.27;100.0
22775;BME280;11554;51.106;3.684;2023-04-15T06:45:00;101010.75;;;9.47;100.0
22775;BME280;11554;51.106;3.684;2023-04-15T06:50:00;101003.62;;;9.72;100.0
22775;BME280;11554;51.106;3.684;2023-04-15T06:55:00;100999.19;;;9.99;100.0
22775;BME280;11554;51.106;3.684;2023-04-15T07:00:00;101005.83;;;10.19;100.0
22775;BME280;11554;51.106;3.684;2023-04-15T07:05:00;101012.33;;;10.37;100.0
22775;BME280;11554;51.106;3.684;2023-04-15T07:10:00;101026.98000000001;;;10.58;100.0
22775;BME280;11554;51.106;3.684;2023-04-15T07:15:00;101034.75;;;10.84;100.0
22775;BME280;11554;51.106;3.684;2023-04-15T07:20:00;101044.17;;;11.06;100.0
22775;BME280;11554;51.106;3.684;2023-04-15T07:25:00;101049.79;;;11.10;100.0
22775;BME280;11554;51.106;3.684;2023-04-15T07:30:00;101063.04000000001;;;10.77;100.0
22775;BME280;11554;51.106;3.684;2023-04-15T07:35:00;101080.88;;;10.58;100.0
22775;BME280;11554;51.106;3.684;2023-04-15T07:40:00;101104.16;;;10.28;100.0
22775;BME280;11554;51.106;3.684;2023-04-15T07:45:00;101106.92;;;10.31;100.0
22775;BME280;11554;51.106;3.684;2023-04-15T07:50:00;101118.44;;;10.32;100.0
22775;BME280;11554;51.106;3.684;2023-04-15T07:55:00;101134.19;;;10.41;98.02
22775;BME280;11554;51.106;3.684;2023-04-15T08:00:00;101141.95999999999;;;10.56;97.34
22775;BME280;11554;51.106;3.684;2023-04-15T08:05:00;101148.83;;;10.90;96.19
22775;BME280;11554;51.106;3.684;2023-04-15T08:10:00;101150.04000000001;;;11.35;94.78
22775;BME280;11554;51.106;3.684;2023-04-15T08:15:00;101161.73999999999;;;11.59;93.65
22775;BME280;11554;51.106;3.684;2023-04-15T08:20:00;101169.22;;;12.09;92.09
22775;BME280;11554;51.106;3.684;2023-04-15T08:25:00;101176.25;;;12.70;92.37
22775;BME280;11554;51.106;3.684;2023-04-15T08:30:00;101187.15999999999;;;13.35;92.67
22775;BME280;11554;51.106;3.684;2023-04-15T08:35:00;101196.2;;;13.13;89.6
22775;BME280;11554;51.106;3.684;2023-04-15T08:40:00;101202.62;;;12.88;87.36
22775;BME280;11554;51.106;3.684;2023-04-15T08:45:00;101206.2;;;13.40;88.69
22775;BME280;11554;51.106;3.684;2023-04-15T08:50:00;101217.21;;;13.32;87.6
22775;BME280;11554;51.106;3.684;2023-04-15T08:55:01;101225.04000000001;;;14.10;88.88
22775;BME280;11554;51.106;3.684;2023-04-15T09:00:00;101237.51999999999;;;14.24;86.78
22775;BME280;11554;51.106;3.684;2023-04-15T09:05:00;101251.12000000001;;;13.94;82.88
22775;BME280;11554;51.106;3.684;2023-04-15T09:10:00;101262.72;;;14.31;85.32
22775;BME280;11554;51.106;3.684;2023-04-15T09:15:00;101270.94;;;14.69;83.42
22775;BME280;11554;51.106;3.684;2023-04-15T09:20:07;101281.56999999999;;;14.83;82.7
22775;BME280;11554;51.106;3.684;2023-04-15T09:25:00;101293.58;;;14.55;80.79
22775;BME280;11554;51.106;3.684;2023-04-15T09:30:00;101300.09999999999;;;14.31;80.36
22775;BME280;11554;51.106;3.684;2023-04-15T09:35:07;101310.27;;;14.82;83.13
22775;BME280;11554;51.106;3.684;2023-04-15T09:40:00;101324.77;;;14.11;79.23
22775;BME280;11554;51.106;3.684;2023-04-15T09:45:07;101334.03;;;13.98;82.09
22775;BME280;11554;51.106;3.684;2023-04-15T09:50:00;101339.14;;;14.17;80.21
22775;BME280;11554;51.106;3.684;2023-04-15T09:55:00;101350.08;;;14.59;81.66
22775;BME280;11554;51.106;3.684;2023-04-15T10:00:00;101353.63;;;15.10;79.96
22775;BME280;11554;51.106;3.684;2023-04-15T10:05:00;101359.74;;;15.56;79.98
22775;BME280;11554;51.106;3.684;2023-04-15T10:10:00;101371.45000000001;;;16.03;78.74
22775;BME280;11554;51.106;3.684;2023-04-15T10:15:02;101381.2;;;17.03;75.65
22775;BME280;11554;51.106;3.684;2023-04-15T10:20:00;101375.43;;;17.80;74.67
22775;BME280;11554;51.106;3.684;2023-04-15T10:25:00;101383.18000000001;;;16.37;71.04
22775;BME280;11554;51.106;3.684;2023-04-15T10:30:00;101382.39;;;17.36;70.64
22775;BME280;11554;51.106;3.684;2023-04-15T10:35:00;101386.47;;;16.86;69.81
22775;BME280;11554;51.106;3.684;2023-04-15T10:40:00;101387.98000000001;;;17.16;69.97
22775;BME280;11554;51.106;3.684;2023-04-15T10:45:00;101405.53;;;16.89;67.79
22775;BME280;11554;51.106;3.684;2023-04-15T10:50:00;101414.29000000001;;;16.23;64.49
22775;BME280;11554;51.106;3.684;2023-04-15T10:55:01;101414.65;;;16.46;66.75
22775;BME280;11554;51.106;3.684;2023-04-15T11:00:01;101427.15;;;16.47;68.58
22775;BME280;11554;51.106;3.684;2023-04-15T11:05:00;101438.34000000001;;;17.20;64.22
22775;BME280;11554;51.106;3.684;2023-04-15T11:10:00;101443.48;;;16.95;64.38
22775;BME280;11554;51.106;3.684;2023-04-15T11:15:00;101449.27;;;17.49;61.16
22775;BME280;11554;51.106;3.684;2023-04-15T11:20:00;101458.0;;;17.19;59.24
22775;BME280;11554;51.106;3.684;2023-04-15T11:25:00;101464.04;;;17.30;58.19
22775;BME280;11554;51.106;3.684;2023-04-15T11:30:00;101473.56;;;17.16;56.77
22775;BME280;11554;51.106;3.684;2023-04-15T11:35:00;101485.03;;;17.41;57.45
22775;BME280;11554;51.106;3.684;2023-04-15T11:40:01;101490.36;;;17.36;60.03
22775;BME280;11554;51.106;3.684;2023-04-15T11:45:05;101507.74;;;16.69;54.67
22775;BME280;11554;51.106;3.684;2023-04-15T11:55:01;101506.25;;;17.48;62.41
22775;BME280;11554;51.106;3.684;2023-04-15T12:00:00;101522.6;;;18.35;60.93
22775;BME280;11554;51.106;3.684;2023-04-15T12:05:03;101523.61;;;18.21;60.61
22775;BME280;11554;51.106;3.684;2023-04-15T12:10:00;101529.97;;;18.25;59.08
22775;BME280;11554;51.106;3.684;2023-04-15T12:15:00;101545.29;;;17.98;55.84
22775;BME280;11554;51.106;3.684;2023-04-15T12:20:00;101550.76000000001;;;18.48;57.62
22775;BME280;11554;51.106;3.684;2023-04-15T12:25:00;101563.3;;;18.18;53.67
22775;BME280;11554;51.106;3.684;2023-04-15T12:30:02;101571.81;;;17.75;53.13
22775;BME280;11554;51.106;3.684;2023-04-15T12:35:00;101577.06;;;17.65;54.64
22775;BME280;11554;51.106;3.684;2023-04-15T12:40:00;101574.19;;;17.36;56.5
22775;BME280;11554;51.106;3.684;2023-04-15T12:45:00;101584.76000000001;;;18.20;57.0
22775;BME280;11554;51.106;3.684;2023-04-15T12:50:00;101583.25;;;18.30;55.81
22775;BME280;11554;51.106;3.684;2023-04-15T12:55:00;101597.16;;;17.80;55.71
22775;BME280;11554;51.106;3.684;2023-04-15T13:00:00;101599.72;;;18.27;55.31
22775;BME280;11554;51.106;3.684;2023-04-15T13:05:00;101608.84;;;19.06;55.06
22775;BME280;11554;51.106;3.684;2023-04-15T13:10:00;101618.64;;;17.98;54.86
22775;BME280;11554;51.106;3.684;2023-04-15T13:15:00;101628.06;;;17.11;56.36
22775;BME280;11554;51.106;3.684;2023-04-15T13:20:00;101623.13;;;16.96;57.62
22775;BME280;11554;51.106;3.684;2023-04-15T13:25:00;101636.35;;;17.18;60.98
22775;BME280;11554;51.106;3.684;2023-04-15T13:30:00;101645.86;;;16.94;63.88
22775;BME280;11554;51.106;3.684;2023-04-15T13:35:00;101646.55;;;17.50;64.26
22775;BME280;11554;51.106;3.684;2023-04-15T13:40:00;101652.29000000001;;;18.26;63.98
22775;BME280;11554;51.106;3.684;2023-04-15T13:45:00;101658.95000000001;;;18.56;64.37
22775;BME280;11554;51.106;3.684;2023-04-15T13:50:00;101665.37;;;18.70;63.39
22775;BME280;11554;51.106;3.684;2023-04-15T13:55:00;101675.56;;;18.75;63.44
22775;BME280;11554;51.106;3.684;2023-04-15T14:00:00;101685.46;;;18.46;63.56
22775;BME280;11554;51.106;3.684;2023-04-15T14:05:00;101698.13;;;18.52;62.12
22775;BME280;11554;51.106;3.684;2023-04-15T14:10:00;101700.09;;;18.53;63.59
22775;BME280;11554;51.106;3.684;2023-04-15T14:15:00;101711.51999999999;;;18.02;66.76
22775;BME280;11554;51.106;3.684;2023-04-15T14:20:00;101720.23000000001;;;18.05;64.89
22775;BME280;11554;51.106;3.684;2023-04-15T14:25:00;101726.76;;;18.09;65.64
22775;BME280;11554;51.106;3.684;2023-04-15T14:30:00;101730.7;;;18.41;64.19
22775;BME280;11554;51.106;3.684;2023-04-15T14:35:00;101726.03;;;18.49;63.6
22775;BME280;11554;51.106;3.684;2023-04-15T14:40:00;101742.3;;;18.13;62.27
22775;BME280;11554;51.106;3.684;2023-04-15T14:45:00;101750.42;;;17.70;62.35
22775;BME280;11554;51.106;3.684;2023-04-15T14:50:00;101756.47;;;18.12;62.67
22775;BME280;11554;51.106;3.684;2023-04-15T14:55:00;101776.01;;;17.50;60.82
22775;BME280;11554;51.106;3.684;2023-04-15T15:00:00;101781.62;;;17.60;60.28
22775;BME280;11554;51.106;3.684;2023-04-15T15:05:00;101790.12;;;17.58;58.82
22775;BME280;11554;51.106;3.684;2023-04-15T15:10:00;101797.42;;;17.06;58.41
22775;BME280;11554;51.106;3.684;2023-04-15T15:15:01;101808.64;;;17.06;58.53
22775;BME280;11554;51.106;3.684;2023-04-15T15:20:00;101816.74;;;17.41;59.76
22775;BME280;11554;51.106;3.684;2023-04-15T15:25:00;101824.87999999999;;;17.37;59.79
22775;BME280;11554;51.106;3.684;2023-04-15T15:30:00;101835.31;;;17.14;60.38
22775;BME280;11554;51.106;3.684;2023-04-15T15:35:00;101847.51;;;16.83;60.91
22775;BME280;11554;51.106;3.684;2023-04-15T15:40:00;101856.09;;;15.93;61.59
22775;BME280;11554;51.106;3.684;2023-04-15T15:45:01;101864.11;;;16.07;58.67
22775;BME280;11554;51.106;3.684;2023-04-15T15:50:00;101874.37999999999;;;15.71;62.09
22775;BME280;11554;51.106;3.684;2023-04-15T15:55:00;101876.78;;;15.75;61.49
22775;BME280;11554;51.106;3.684;2023-04-15T16:00:00;101891.45999999999;;;15.74;63.43
22775;BME280;11554;51.106;3.684;2023-04-15T16:05:00;101887.8;;;15.55;63.12
22775;BME280;11554;51.106;3.684;2023-04-15T16:10:00;101899.61;;;15.49;64.14
22775;BME280;11554;51.106;3.684;2023-04-15T16:15:00;101912.41;;;15.31;63.07
22775;BME280;11554;51.106;3.684;2023-04-15T16:20:00;101918.59;;;14.87;64.18
22775;BME280;11554;51.106;3.684;2023-04-15T16:25:00;101907.11;;;14.89;64.97
22775;BME280;11554;51.106;3.684;2023-04-15T16:30:00;101917.17;;;14.98;66.32
22775;BME280;11554;51.106;3.684;2023-04-15T16:35:00;101924.28;;;14.75;67.31
22775;BME280;11554;51.106;3.684;2023-04-15T16:40:00;101931.23000000001;;;14.39;68.83
22775;BME280;11554;51.106;3.684;2023-04-15T16:45:00;101936.44;;;13.77;68.74
22775;BME280;11554;51.106;3.684;2023-04-15T16:50:00;101949.87;;;13.94;69.56
22775;BME280;11554;51.106;3.684;2023-04-15T16:55:00;101945.7;;;13.81;70.02
22775;BME280;11554;51.106;3.684;2023-04-15T17:00:00;101948.92;;;13.81;70.57
22775;BME280;11554;51.106;3.684;2023-04-15T17:05:00;101950.67;;;13.64;72.25
22775;BME280;11554;51.106;3.684;2023-04-15T17:10:00;101966.43000000001;;;13.52;72.93
22775;BME280;11554;51.106;3.684;2023-04-15T17:15:00;101979.25;;;13.42;74.18
22775;BME280;11554;51.106;3.684;2023-04-15T17:20:00;101982.69;;;13.04;75.87
22775;BME280;11554;51.106;3.684;2023-04-15T17:25:00;101984.01;;;12.79;78.24
22775;BME280;11554;51.106;3.684;2023-04-15T17:30:00;101995.43;;;12.33;79.38
22775;BME280;11554;51.106;3.684;2023-04-15T17:35:00;102004.06;;;11.98;80.06
22775;BME280;11554;51.106;3.684;2023-04-15T17:40:00;102005.22;;;11.66;83.24
22775;BME280;11554;51.106;3.684;2023-04-15T17:45:00;102018.47;;;11.38;84.1
22775;BME280;11554;51.106;3.684;2023-04-15T17:50:00;102018.06;;;11.14;83.7
22775;BME280;11554;51.106;3.684;2023-04-15T17:55:00;102022.16;;;10.92;85.95
22775;BME280;11554;51.106;3.684;2023-04-15T18:00:00;102033.11;;;10.68;85.78
22775;BME280;11554;51.106;3.684;2023-04-15T18:05:00;102048.89;;;10.48;85.44
22775;BME280;11554;51.106;3.684;2023-04-15T18:10:00;102050.87;;;10.27;86.99
22775;BME280;11554;51.106;3.684;2023-04-15T18:15:00;102056.8;;;10.12;87.5
22775;BME280;11554;51.106;3.684;2023-04-15T18:20:00;102063.37;;;9.95;88.32
22775;BME280;11554;51.106;3.684;2023-04-15T18:25:00;102073.27;;;9.77;88.94
22775;BME280;11554;51.106;3.684;2023-04-15T18:30:00;102084.66;;;9.57;89.97
22775;BME280;11554;51.106;3.684;2023-04-15T18:35:00;102093.84;;;9.40;90.61
22775;BME280;11554;51.106;3.684;2023-04-15T18:40:00;102103.06;;;9.25;91.29
22775;BME280;11554;51.106;3.684;2023-04-15T18:45:00;102109.04000000001;;;9.11;92.87
22775;BME280;11554;51.106;3.684;2023-04-15T18:50:00;102114.34000000001;;;8.93;92.88
22775;BME280;11554;51.106;3.684;2023-04-15T18:55:00;102126.97;;;8.76;93.99
22775;BME280;11554;51.106;3.684;2023-04-15T19:00:00;102140.75;;;8.61;95.67
22775;BME280;11554;51.106;3.684;2023-04-15T19:05:00;102140.42;;;8.44;95.72
22775;BME280;11554;51.106;3.684;2023-04-15T19:10:00;102154.1;;;8.31;96.72
22775;BME280;11554;51.106;3.684;2023-04-15T19:15:00;102160.77;;;8.12;96.66
22775;BME280;11554;51.106;3.684;2023-04-15T19:20:00;102166.99;;;8.03;97.94
22775;BME280;11554;51.106;3.684;2023-04-15T19:25:00;102166.24;;;7.90;99.51
22775;BME280;11554;51.106;3.684;2023-04-15T19:30:00;102177.53;;;7.77;99.69
22775;BME280;11554;51.106;3.684;2023-04-15T19:35:00;102184.38;;;7.64;100.0
22775;BME280;11554;51.106;3.684;2023-04-15T19:40:00;102181.0;;;7.55;100.0
22775;BME280;11554;51.106;3.684;2023-04-15T19:45:00;102186.21;;;7.46;100.0
22775;BME280;11554;51.106;3.684;2023-04-15T19:50:00;102192.08;;;7.33;100.0
22775;BME280;11554;51.106;3.684;2023-04-15T19:55:00;102198.01999999999;;;7.20;100.0
22775;BME280;11554;51.106;3.684;2023-04-15T20:00:00;102209.99;;;7.09;100.0
22775;BME280;11554;51.106;3.684;2023-04-15T20:05:00;102219.62;;;7.01;100.0
22775;BME280;11554;51.106;3.684;2023-04-15T20:10:00;102226.5;;;6.92;100.0
22775;BME280;11554;51.106;3.684;2023-04-15T20:15:00;102227.69;;;6.85;100.0
22775;BME280;11554;51.106;3.684;2023-04-15T20:20:00;102222.94;;;6.87;100.0
22775;BME280;11554;51.106;3.684;2023-04-15T20:25:00;102230.39;;;6.83;100.0
22775;BME280;11554;51.106;3.684;2023-04-15T20:30:00;102237.51999999999;;;6.76;100.0
22775;BME280;11554;51.106;3.684;2023-04-15T20:35:00;102235.88;;;6.69;100.0
22775;BME280;11554;51.106;3.684;2023-04-15T20:40:00;102240.57;;;6.66;100.0
22775;BME280;11554;51.106;3.684;2023-04-15T20:45:00;102249.42;;;6.60;100.0
22775;BME280;11554;51.106;3.684;2023-04-15T20:50:00;102243.67;;;6.48;100.0
22775;BME280;11554;51.106;3.684;2023-04-15T20:55:00;102247.91;;;6.41;100.0
22775;BME280;11554;51.106;3.684;2023-04-15T21:00:00;102255.92;;;6.32;100.0
22775;BME280;11554;51.106;3.684;2023-04-15T21:05:00;102261.13;;;6.39;100.0
22775;BME280;11554;51.106;3.684;2023-04-15T21:10:00;102259.92;;;6.36;100.0
22775;BME280;11554;51.106;3.684;2023-04-15T21:15:00;102261.65;;;6.24;100.0
22775;BME280;11554;51.106;3.684;2023-04-15T21:20:00;102257.98;;;6.13;100.0
22775;BME280;11554;51.106;3.684;2023-04-15T21:25:00;102261.47;;;6.08;100.0
22775;BME280;11554;51.106;3.684;2023-04-15T21:30:00;102261.13;;;6.03;100.0
22775;BME280;11554;51.106;3.684;2023-04-15T21:35:00;102269.4;;;5.90;100.0
22775;BME280;11554;51.106;3.684;2023-04-15T21:40:00;102272.66;;;5.79;100.0
22775;BME280;11554;51.106;3.684;2023-04-15T21:45:00;102281.2;;;5.80;100.0
22775;BME280;11554;51.106;3.684;2023-04-15T21:50:00;102289.25;;;5.78;100.0
22775;BME280;11554;51.106;3.684;2023-04-15T21:55:00;102289.08;;;5.74;100.0
22775;BME280;11554;51.106;3.684;2023-04-15T22:00:00;102298.39;;;5.67;100.0
22775;BME280;11554;51.106;3.684;2023-04-15T22:05:00;102300.53;;;5.60;100.0
22775;BME280;11554;51.106;3.684;2023-04-15T22:10:00;102307.56;;;5.55;100.0
22775;BME280;11554;51.106;3.684;2023-04-15T22:15:00;102310.63;;;5.47;100.0
22775;BME280;11554;51.106;3.684;2023-04-15T22:20:00;102315.62;;;5.35;100.0
22775;BME280;11554;51.106;3.684;2023-04-15T22:25:00;102316.27;;;5.35;100.0
22775;BME280;11554;51.106;3.684;2023-04-15T22:30:00;102316.27;;;5.37;100.0
22775;BME280;11554;51.106;3.684;2023-04-15T22:35:00;102314.47;;;5.46;100.0
22775;BME280;11554;51.106;3.684;2023-04-15T22:40:00;102316.95999999999;;;5.47;100.0
22775;BME280;11554;51.106;3.684;2023-04-15T22:45:00;102325.99;;;5.51;100.0
22775;BME280;11554;51.106;3.684;2023-04-15T22:50:00;102325.53;;;5.49;100.0
22775;BME280;11554;51.106;3.684;2023-04-15T22:55:00;102327.69;;;5.40;100.0
22775;BME280;11554;51.106;3.684;2023-04-15T23:00:00;102339.65;;;5.35;100.0
22775;BME280;11554;51.106;3.684;2023-04-15T23:05:00;102349.59999999999;;;5.46;100.0
22775;BME280;11554;51.106;3.684;2023-04-15T23:10:00;102353.61;;;5.57;100.0
22775;BME280;11554;51.106;3.684;2023-04-15T23:15:00;102357.54;;;5.58;100.0
22775;BME280;11554;51.106;3.684;2023-04-15T23:20:00;102363.34000000001;;;5.66;100.0
22775;BME280;11554;51.106;3.684;2023-04-15T23:25:00;102362.29;;;5.74;100.0
22775;BME280;11554;51.106;3.684;2023-04-15T23:30:00;102360.77;;;5.75;100.0
22775;BME280;11554;51.106;3.684;2023-04-15T23:35:00;102358.06;;;5.80;100.0
22775;BME280;11554;51.106;3.684;2023-04-15T23:40:00;102360.40000000001;;;5.74;100.0
22775;BME280;11554;51.106;3.684;2023-04-15T23:45:00;102360.28;;;5.79;100.0
22775;BME280;11554;51.106;3.684;2023-04-15T23:50:00;102362.27;;;5.85;100.0
22775;BME280;11554;51.106;3.684;2023-04-15T23:55:00;102361.95999999999;;;5.88;100.0
